sensor_id;sensor_type;location;lat;lon;timestamp;P1;durP1;ratioP1;P2;durP2;ratioP2
67986;SDS011;54767;53.800;15.956;2022-09-29T00:00:31;10.20;;;6.40;;
67986;SDS011;54767;53.800;15.956;2022-09-29T00:03:17;9.50;;;6.50;;
67986;SDS011;54767;53.800;15.956;2022-09-29T00:05:50;9.90;;;7.30;;
67986;SDS011;54767;53.800;15.956;2022-09-29T00:08:18;11.00;;;6.80;;
67986;SDS011;54767;53.800;15.956;2022-09-29T00:10:46;9.50;;;6.30;;
67986;SDS011;54767;53.800;15.956;2022-09-29T00:13:13;11.10;;;7.60;;
67986;SDS011;54767;53.800;15.956;2022-09-29T00:15:41;11.60;;;7.10;;
67986;SDS011;54767;53.800;15.956;2022-09-29T00:18:08;11.40;;;7.30;;
67986;SDS011;54767;53.800;15.956;2022-09-29T00:20:40;12.30;;;7.60;;
67986;SDS011;54767;53.800;15.956;2022-09-29T00:23:07;12.10;;;7.50;;
67986;SDS011;54767;53.800;15.956;2022-09-29T00:25:33;11.30;;;7.60;;
67986;SDS011;54767;53.800;15.956;2022-09-29T00:28:00;12.80;;;8.10;;
67986;SDS011;54767;53.800;15.956;2022-09-29T00:30:27;12.80;;;8.00;;
67986;SDS011;54767;53.800;15.956;2022-09-29T00:32:54;12.70;;;8.10;;
67986;SDS011;54767;53.800;15.956;2022-09-29T00:35:21;11.00;;;7.50;;
67986;SDS011;54767;53.800;15.956;2022-09-29T00:37:48;12.00;;;7.80;;
67986;SDS011;54767;53.800;15.956;2022-09-29T00:40:15;12.60;;;7.80;;
67986;SDS011;54767;53.800;15.956;2022-09-29T00:42:42;12.60;;;8.10;;
67986;SDS011;54767;53.800;15.956;2022-09-29T00:45:16;11.90;;;7.80;;
67986;SDS011;54767;53.800;15.956;2022-09-29T00:47:44;12.20;;;8.00;;
67986;SDS011;54767;53.800;15.956;2022-09-29T00:53:13;12.50;;;8.20;;
67986;SDS011;54767;53.800;15.956;2022-09-29T00:55:49;13.00;;;7.90;;
67986;SDS011;54767;53.800;15.956;2022-09-29T01:01:00;11.20;;;7.60;;
67986;SDS011;54767;53.800;15.956;2022-09-29T01:03:30;13.70;;;7.90;;
67986;SDS011;54767;53.800;15.956;2022-09-29T01:06:07;11.60;;;7.90;;
67986;SDS011;54767;53.800;15.956;2022-09-29T01:08:40;11.50;;;7.70;;
67986;SDS011;54767;53.800;15.956;2022-09-29T01:11:11;11.80;;;7.80;;
67986;SDS011;54767;53.800;15.956;2022-09-29T01:13:39;12.20;;;8.10;;
67986;SDS011;54767;53.800;15.956;2022-09-29T01:16:07;11.40;;;7.10;;
67986;SDS011;54767;53.800;15.956;2022-09-29T01:18:35;12.10;;;7.50;;
67986;SDS011;54767;53.800;15.956;2022-09-29T01:21:10;11.10;;;7.30;;
67986;SDS011;54767;53.800;15.956;2022-09-29T01:28:57;12.10;;;7.30;;
67986;SDS011;54767;53.800;15.956;2022-09-29T01:31:33;11.00;;;7.60;;
67986;SDS011;54767;53.800;15.956;2022-09-29T01:39:37;11.00;;;7.20;;
67986;SDS011;54767;53.800;15.956;2022-09-29T01:42:16;10.60;;;7.30;;
67986;SDS011;54767;53.800;15.956;2022-09-29T01:44:53;11.30;;;7.00;;
67986;SDS011;54767;53.800;15.956;2022-09-29T01:47:24;10.80;;;7.20;;
67986;SDS011;54767;53.800;15.956;2022-09-29T01:50:00;13.50;;;7.60;;
67986;SDS011;54767;53.800;15.956;2022-09-29T01:52:32;9.70;;;6.60;;
67986;SDS011;54767;53.800;15.956;2022-09-29T01:55:16;11.70;;;7.10;;
67986;SDS011;54767;53.800;15.956;2022-09-29T01:57:46;12.00;;;7.00;;
67986;SDS011;54767;53.800;15.956;2022-09-29T02:00:19;9.50;;;6.40;;
67986;SDS011;54767;53.800;15.956;2022-09-29T02:03:09;11.80;;;7.00;;
67986;SDS011;54767;53.800;15.956;2022-09-29T02:05:44;10.10;;;6.80;;
67986;SDS011;54767;53.800;15.956;2022-09-29T02:11:09;10.80;;;7.20;;
67986;SDS011;54767;53.800;15.956;2022-09-29T02:16:05;12.40;;;7.50;;
67986;SDS011;54767;53.800;15.956;2022-09-29T02:18:57;13.00;;;7.20;;
67986;SDS011;54767;53.800;15.956;2022-09-29T02:21:29;10.50;;;6.60;;
67986;SDS011;54767;53.800;15.956;2022-09-29T02:23:56;9.50;;;6.80;;
67986;SDS011;54767;53.800;15.956;2022-09-29T02:26:23;10.40;;;6.80;;
67986;SDS011;54767;53.800;15.956;2022-09-29T02:28:54;12.80;;;6.40;;
67986;SDS011;54767;53.800;15.956;2022-09-29T02:31:21;10.50;;;6.80;;
67986;SDS011;54767;53.800;15.956;2022-09-29T02:33:49;11.00;;;6.30;;
67986;SDS011;54767;53.800;15.956;2022-09-29T02:39:07;9.80;;;6.50;;
67986;SDS011;54767;53.800;15.956;2022-09-29T02:50:02;12.70;;;7.00;;
67986;SDS011;54767;53.800;15.956;2022-09-29T02:53:32;11.80;;;7.40;;
67986;SDS011;54767;53.800;15.956;2022-09-29T02:58:43;11.50;;;7.50;;
67986;SDS011;54767;53.800;15.956;2022-09-29T03:03:43;12.10;;;7.50;;
67986;SDS011;54767;53.800;15.956;2022-09-29T03:06:10;12.40;;;7.90;;
67986;SDS011;54767;53.800;15.956;2022-09-29T03:08:39;15.50;;;8.40;;
67986;SDS011;54767;53.800;15.956;2022-09-29T03:11:06;13.80;;;8.50;;
67986;SDS011;54767;53.800;15.956;2022-09-29T03:13:32;14.70;;;8.40;;
67986;SDS011;54767;53.800;15.956;2022-09-29T03:15:59;13.60;;;8.60;;
67986;SDS011;54767;53.800;15.956;2022-09-29T03:18:26;14.70;;;8.50;;
67986;SDS011;54767;53.800;15.956;2022-09-29T03:20:53;15.70;;;9.10;;
67986;SDS011;54767;53.800;15.956;2022-09-29T03:23:20;14.90;;;9.20;;
67986;SDS011;54767;53.800;15.956;2022-09-29T03:25:47;15.40;;;9.00;;
67986;SDS011;54767;53.800;15.956;2022-09-29T03:28:14;15.40;;;9.20;;
67986;SDS011;54767;53.800;15.956;2022-09-29T03:30:42;13.90;;;8.90;;
67986;SDS011;54767;53.800;15.956;2022-09-29T03:33:10;14.40;;;8.80;;
67986;SDS011;54767;53.800;15.956;2022-09-29T03:35:37;17.80;;;9.00;;
67986;SDS011;54767;53.800;15.956;2022-09-29T03:38:10;12.50;;;7.80;;
67986;SDS011;54767;53.800;15.956;2022-09-29T03:40:36;12.60;;;7.70;;
67986;SDS011;54767;53.800;15.956;2022-09-29T03:43:03;13.90;;;8.80;;
67986;SDS011;54767;53.800;15.956;2022-09-29T03:45:30;14.30;;;7.90;;
67986;SDS011;54767;53.800;15.956;2022-09-29T03:47:57;12.70;;;7.80;;
67986;SDS011;54767;53.800;15.956;2022-09-29T03:50:23;11.70;;;7.50;;
67986;SDS011;54767;53.800;15.956;2022-09-29T03:52:50;12.60;;;7.50;;
67986;SDS011;54767;53.800;15.956;2022-09-29T03:55:17;11.00;;;7.00;;
67986;SDS011;54767;53.800;15.956;2022-09-29T03:57:44;11.50;;;7.50;;
67986;SDS011;54767;53.800;15.956;2022-09-29T04:00:12;12.10;;;7.40;;
67986;SDS011;54767;53.800;15.956;2022-09-29T04:02:39;11.80;;;7.40;;
67986;SDS011;54767;53.800;15.956;2022-09-29T04:05:06;13.30;;;7.80;;
67986;SDS011;54767;53.800;15.956;2022-09-29T04:07:33;12.40;;;6.80;;
67986;SDS011;54767;53.800;15.956;2022-09-29T04:09:59;11.50;;;6.90;;
67986;SDS011;54767;53.800;15.956;2022-09-29T04:12:26;13.30;;;7.20;;
67986;SDS011;54767;53.800;15.956;2022-09-29T04:14:53;11.30;;;6.50;;
67986;SDS011;54767;53.800;15.956;2022-09-29T04:17:20;11.00;;;6.90;;
67986;SDS011;54767;53.800;15.956;2022-09-29T04:19:47;10.70;;;6.50;;
67986;SDS011;54767;53.800;15.956;2022-09-29T04:22:14;10.90;;;6.70;;
67986;SDS011;54767;53.800;15.956;2022-09-29T04:24:44;13.10;;;7.20;;
67986;SDS011;54767;53.800;15.956;2022-09-29T04:27:13;11.40;;;7.30;;
67986;SDS011;54767;53.800;15.956;2022-09-29T04:29:41;10.50;;;6.80;;
67986;SDS011;54767;53.800;15.956;2022-09-29T04:32:07;10.20;;;6.40;;
67986;SDS011;54767;53.800;15.956;2022-09-29T04:34:34;11.60;;;6.30;;
67986;SDS011;54767;53.800;15.956;2022-09-29T04:37:02;10.10;;;6.50;;
67986;SDS011;54767;53.800;15.956;2022-09-29T04:39:28;10.10;;;6.50;;
67986;SDS011;54767;53.800;15.956;2022-09-29T04:41:55;11.30;;;6.70;;
67986;SDS011;54767;53.800;15.956;2022-09-29T04:44:22;9.50;;;6.00;;
67986;SDS011;54767;53.800;15.956;2022-09-29T04:46:50;10.60;;;6.00;;
67986;SDS011;54767;53.800;15.956;2022-09-29T04:49:17;10.70;;;6.30;;
67986;SDS011;54767;53.800;15.956;2022-09-29T04:51:45;12.60;;;6.70;;
67986;SDS011;54767;53.800;15.956;2022-09-29T04:54:12;10.20;;;6.10;;
67986;SDS011;54767;53.800;15.956;2022-09-29T04:56:39;12.40;;;6.70;;
67986;SDS011;54767;53.800;15.956;2022-09-29T04:59:06;11.10;;;6.50;;
67986;SDS011;54767;53.800;15.956;2022-09-29T05:01:34;11.10;;;6.50;;
67986;SDS011;54767;53.800;15.956;2022-09-29T05:04:01;11.10;;;6.00;;
67986;SDS011;54767;53.800;15.956;2022-09-29T05:06:28;11.60;;;6.80;;
67986;SDS011;54767;53.800;15.956;2022-09-29T05:08:55;11.00;;;6.40;;
67986;SDS011;54767;53.800;15.956;2022-09-29T05:11:21;11.60;;;6.70;;
67986;SDS011;54767;53.800;15.956;2022-09-29T05:13:48;10.50;;;6.30;;
67986;SDS011;54767;53.800;15.956;2022-09-29T05:18:45;11.40;;;6.50;;
67986;SDS011;54767;53.800;15.956;2022-09-29T05:21:11;10.10;;;6.00;;
67986;SDS011;54767;53.800;15.956;2022-09-29T05:23:55;12.10;;;6.80;;
67986;SDS011;54767;53.800;15.956;2022-09-29T05:26:22;11.90;;;6.00;;
67986;SDS011;54767;53.800;15.956;2022-09-29T05:28:49;10.50;;;5.70;;
67986;SDS011;54767;53.800;15.956;2022-09-29T05:31:16;12.10;;;6.40;;
67986;SDS011;54767;53.800;15.956;2022-09-29T05:33:44;13.60;;;6.60;;
67986;SDS011;54767;53.800;15.956;2022-09-29T05:36:11;13.20;;;7.10;;
67986;SDS011;54767;53.800;15.956;2022-09-29T05:38:38;11.80;;;6.60;;
67986;SDS011;54767;53.800;15.956;2022-09-29T05:41:09;12.20;;;6.40;;
67986;SDS011;54767;53.800;15.956;2022-09-29T05:43:39;13.40;;;6.60;;
67986;SDS011;54767;53.800;15.956;2022-09-29T05:46:07;12.60;;;7.20;;
67986;SDS011;54767;53.800;15.956;2022-09-29T05:48:36;12.30;;;6.80;;
67986;SDS011;54767;53.800;15.956;2022-09-29T05:51:10;13.60;;;7.60;;
67986;SDS011;54767;53.800;15.956;2022-09-29T05:53:38;13.90;;;7.20;;
67986;SDS011;54767;53.800;15.956;2022-09-29T05:56:10;14.00;;;7.20;;
67986;SDS011;54767;53.800;15.956;2022-09-29T05:58:40;11.70;;;6.30;;
67986;SDS011;54767;53.800;15.956;2022-09-29T06:01:08;13.50;;;7.40;;
67986;SDS011;54767;53.800;15.956;2022-09-29T06:03:40;12.80;;;7.00;;
67986;SDS011;54767;53.800;15.956;2022-09-29T06:06:09;12.80;;;7.00;;
67986;SDS011;54767;53.800;15.956;2022-09-29T06:08:37;12.60;;;7.00;;
67986;SDS011;54767;53.800;15.956;2022-09-29T06:11:09;13.70;;;7.90;;
67986;SDS011;54767;53.800;15.956;2022-09-29T06:13:48;12.90;;;7.10;;
67986;SDS011;54767;53.800;15.956;2022-09-29T06:16:17;12.90;;;7.30;;
67986;SDS011;54767;53.800;15.956;2022-09-29T06:18:45;14.10;;;7.70;;
67986;SDS011;54767;53.800;15.956;2022-09-29T06:21:14;14.30;;;7.40;;
67986;SDS011;54767;53.800;15.956;2022-09-29T06:23:43;13.30;;;8.10;;
67986;SDS011;54767;53.800;15.956;2022-09-29T06:26:11;13.30;;;7.10;;
67986;SDS011;54767;53.800;15.956;2022-09-29T06:28:40;13.30;;;7.40;;
67986;SDS011;54767;53.800;15.956;2022-09-29T06:31:09;15.20;;;7.80;;
67986;SDS011;54767;53.800;15.956;2022-09-29T06:33:41;12.90;;;7.00;;
67986;SDS011;54767;53.800;15.956;2022-09-29T06:36:14;12.00;;;6.90;;
67986;SDS011;54767;53.800;15.956;2022-09-29T06:39:03;10.20;;;6.20;;
67986;SDS011;54767;53.800;15.956;2022-09-29T06:41:32;12.40;;;7.00;;
67986;SDS011;54767;53.800;15.956;2022-09-29T06:44:00;11.40;;;6.60;;
67986;SDS011;54767;53.800;15.956;2022-09-29T06:46:28;11.40;;;6.80;;
67986;SDS011;54767;53.800;15.956;2022-09-29T06:48:56;13.10;;;6.90;;
67986;SDS011;54767;53.800;15.956;2022-09-29T06:51:23;12.40;;;6.80;;
67986;SDS011;54767;53.800;15.956;2022-09-29T06:54:04;11.30;;;6.50;;
67986;SDS011;54767;53.800;15.956;2022-09-29T06:56:38;11.10;;;6.60;;
67986;SDS011;54767;53.800;15.956;2022-09-29T06:59:05;12.10;;;6.60;;
67986;SDS011;54767;53.800;15.956;2022-09-29T07:01:33;10.90;;;6.70;;
67986;SDS011;54767;53.800;15.956;2022-09-29T07:04:00;11.50;;;6.80;;
67986;SDS011;54767;53.800;15.956;2022-09-29T07:06:27;10.40;;;6.40;;
67986;SDS011;54767;53.800;15.956;2022-09-29T07:08:55;10.80;;;6.60;;
67986;SDS011;54767;53.800;15.956;2022-09-29T07:11:23;12.20;;;6.70;;
67986;SDS011;54767;53.800;15.956;2022-09-29T07:13:50;10.90;;;6.40;;
67986;SDS011;54767;53.800;15.956;2022-09-29T07:16:21;10.70;;;6.50;;
67986;SDS011;54767;53.800;15.956;2022-09-29T07:18:49;11.10;;;6.50;;
67986;SDS011;54767;53.800;15.956;2022-09-29T07:21:16;10.20;;;6.00;;
67986;SDS011;54767;53.800;15.956;2022-09-29T07:23:45;14.20;;;7.50;;
67986;SDS011;54767;53.800;15.956;2022-09-29T07:26:13;13.90;;;7.80;;
67986;SDS011;54767;53.800;15.956;2022-09-29T07:28:41;13.10;;;8.20;;
67986;SDS011;54767;53.800;15.956;2022-09-29T07:31:10;12.70;;;7.40;;
67986;SDS011;54767;53.800;15.956;2022-09-29T07:33:42;12.50;;;6.80;;
67986;SDS011;54767;53.800;15.956;2022-09-29T07:36:10;11.10;;;6.80;;
67986;SDS011;54767;53.800;15.956;2022-09-29T07:38:38;12.10;;;6.80;;
67986;SDS011;54767;53.800;15.956;2022-09-29T07:41:06;13.40;;;6.90;;
67986;SDS011;54767;53.800;15.956;2022-09-29T07:43:35;11.20;;;6.40;;
67986;SDS011;54767;53.800;15.956;2022-09-29T07:46:02;10.10;;;5.90;;
67986;SDS011;54767;53.800;15.956;2022-09-29T07:48:29;11.90;;;6.70;;
67986;SDS011;54767;53.800;15.956;2022-09-29T07:53:53;11.80;;;6.50;;
67986;SDS011;54767;53.800;15.956;2022-09-29T07:56:21;12.00;;;6.80;;
67986;SDS011;54767;53.800;15.956;2022-09-29T07:58:48;10.80;;;6.30;;
67986;SDS011;54767;53.800;15.956;2022-09-29T08:01:16;11.80;;;6.40;;
67986;SDS011;54767;53.800;15.956;2022-09-29T08:03:48;10.30;;;6.10;;
67986;SDS011;54767;53.800;15.956;2022-09-29T08:06:20;10.50;;;5.80;;
67986;SDS011;54767;53.800;15.956;2022-09-29T08:08:49;10.90;;;6.50;;
67986;SDS011;54767;53.800;15.956;2022-09-29T08:11:30;11.50;;;6.50;;
67986;SDS011;54767;53.800;15.956;2022-09-29T08:13:59;12.00;;;7.00;;
67986;SDS011;54767;53.800;15.956;2022-09-29T08:16:27;11.00;;;6.70;;
67986;SDS011;54767;53.800;15.956;2022-09-29T08:18:54;12.60;;;6.60;;
67986;SDS011;54767;53.800;15.956;2022-09-29T08:21:21;12.30;;;6.40;;
67986;SDS011;54767;53.800;15.956;2022-09-29T08:23:48;13.40;;;7.30;;
67986;SDS011;54767;53.800;15.956;2022-09-29T08:26:15;12.20;;;6.90;;
67986;SDS011;54767;53.800;15.956;2022-09-29T08:28:52;11.70;;;6.80;;
67986;SDS011;54767;53.800;15.956;2022-09-29T08:31:33;12.60;;;7.70;;
67986;SDS011;54767;53.800;15.956;2022-09-29T08:34:00;12.40;;;7.10;;
67986;SDS011;54767;53.800;15.956;2022-09-29T08:36:27;12.40;;;7.30;;
67986;SDS011;54767;53.800;15.956;2022-09-29T08:38:55;13.00;;;6.80;;
67986;SDS011;54767;53.800;15.956;2022-09-29T08:47:18;12.90;;;7.40;;
67986;SDS011;54767;53.800;15.956;2022-09-29T08:50:10;15.10;;;8.00;;
67986;SDS011;54767;53.800;15.956;2022-09-29T08:52:54;15.30;;;8.50;;
67986;SDS011;54767;53.800;15.956;2022-09-29T08:58:01;16.40;;;8.70;;
67986;SDS011;54767;53.800;15.956;2022-09-29T09:00:39;15.30;;;8.80;;
67986;SDS011;54767;53.800;15.956;2022-09-29T09:05:54;15.50;;;9.20;;
67986;SDS011;54767;53.800;15.956;2022-09-29T09:16:58;14.30;;;8.70;;
67986;SDS011;54767;53.800;15.956;2022-09-29T09:25:18;14.60;;;8.70;;
67986;SDS011;54767;53.800;15.956;2022-09-29T09:30:44;14.80;;;8.10;;
67986;SDS011;54767;53.800;15.956;2022-09-29T09:33:15;13.60;;;8.10;;
67986;SDS011;54767;53.800;15.956;2022-09-29T09:41:30;13.50;;;7.90;;
67986;SDS011;54767;53.800;15.956;2022-09-29T09:44:16;13.60;;;8.30;;
67986;SDS011;54767;53.800;15.956;2022-09-29T09:49:24;13.40;;;8.00;;
67986;SDS011;54767;53.800;15.956;2022-09-29T09:51:58;12.90;;;8.40;;
67986;SDS011;54767;53.800;15.956;2022-09-29T09:54:32;13.80;;;8.30;;
67986;SDS011;54767;53.800;15.956;2022-09-29T09:57:06;15.30;;;8.40;;
67986;SDS011;54767;53.800;15.956;2022-09-29T10:02:14;12.50;;;8.20;;
67986;SDS011;54767;53.800;15.956;2022-09-29T10:04:45;12.10;;;8.00;;
67986;SDS011;54767;53.800;15.956;2022-09-29T10:07:16;12.00;;;7.80;;
67986;SDS011;54767;53.800;15.956;2022-09-29T10:09:45;12.20;;;7.90;;
67986;SDS011;54767;53.800;15.956;2022-09-29T10:12:14;15.00;;;8.00;;
67986;SDS011;54767;53.800;15.956;2022-09-29T10:14:51;11.30;;;7.60;;
67986;SDS011;54767;53.800;15.956;2022-09-29T10:17:24;11.80;;;7.50;;
67986;SDS011;54767;53.800;15.956;2022-09-29T10:19:57;11.80;;;8.10;;
67986;SDS011;54767;53.800;15.956;2022-09-29T10:22:26;12.10;;;7.70;;
67986;SDS011;54767;53.800;15.956;2022-09-29T10:25:11;12.60;;;8.20;;
67986;SDS011;54767;53.800;15.956;2022-09-29T10:32:58;13.90;;;9.40;;
67986;SDS011;54767;53.800;15.956;2022-09-29T10:35:32;13.70;;;9.20;;
67986;SDS011;54767;53.800;15.956;2022-09-29T10:38:06;12.60;;;9.00;;
67986;SDS011;54767;53.800;15.956;2022-09-29T10:43:41;14.30;;;9.20;;
67986;SDS011;54767;53.800;15.956;2022-09-29T10:49:14;15.60;;;9.40;;
67986;SDS011;54767;53.800;15.956;2022-09-29T10:52:02;14.80;;;10.60;;
67986;SDS011;54767;53.800;15.956;2022-09-29T10:54:36;15.40;;;10.30;;
67986;SDS011;54767;53.800;15.956;2022-09-29T10:57:19;30.00;;;18.70;;
67986;SDS011;54767;53.800;15.956;2022-09-29T10:59:53;14.10;;;9.40;;
67986;SDS011;54767;53.800;15.956;2022-09-29T11:04:55;13.00;;;8.90;;
67986;SDS011;54767;53.800;15.956;2022-09-29T11:07:25;13.90;;;9.30;;
67986;SDS011;54767;53.800;15.956;2022-09-29T11:09:53;13.20;;;9.60;;
67986;SDS011;54767;53.800;15.956;2022-09-29T11:12:35;13.20;;;9.20;;
67986;SDS011;54767;53.800;15.956;2022-09-29T11:15:20;11.70;;;8.70;;
67986;SDS011;54767;53.800;15.956;2022-09-29T11:17:52;13.60;;;10.00;;
67986;SDS011;54767;53.800;15.956;2022-09-29T11:20:19;14.70;;;11.00;;
67986;SDS011;54767;53.800;15.956;2022-09-29T11:33:27;12.80;;;8.90;;
67986;SDS011;54767;53.800;15.956;2022-09-29T11:44:37;14.00;;;10.20;;
67986;SDS011;54767;53.800;15.956;2022-09-29T12:09:40;11.20;;;7.50;;
67986;SDS011;54767;53.800;15.956;2022-09-29T12:12:22;10.10;;;6.80;;
67986;SDS011;54767;53.800;15.956;2022-09-29T12:19:09;12.70;;;7.00;;
67986;SDS011;54767;53.800;15.956;2022-09-29T12:21:54;14.10;;;7.50;;
67986;SDS011;54767;53.800;15.956;2022-09-29T12:25:12;11.20;;;7.00;;
67986;SDS011;54767;53.800;15.956;2022-09-29T12:27:45;9.80;;;6.30;;
67986;SDS011;54767;53.800;15.956;2022-09-29T12:30:47;10.10;;;6.30;;
67986;SDS011;54767;53.800;15.956;2022-09-29T12:33:42;11.50;;;6.60;;
67986;SDS011;54767;53.800;15.956;2022-09-29T12:45:00;9.70;;;6.40;;
67986;SDS011;54767;53.800;15.956;2022-09-29T12:47:44;9.80;;;6.40;;
67986;SDS011;54767;53.800;15.956;2022-09-29T12:50:28;9.00;;;6.00;;
67986;SDS011;54767;53.800;15.956;2022-09-29T12:58:53;9.30;;;7.00;;
67986;SDS011;54767;53.800;15.956;2022-09-29T13:01:29;11.20;;;6.50;;
67986;SDS011;54767;53.800;15.956;2022-09-29T13:10:10;7.60;;;5.70;;
67986;SDS011;54767;53.800;15.956;2022-09-29T13:20:22;9.00;;;6.40;;
67986;SDS011;54767;53.800;15.956;2022-09-29T13:23:54;8.60;;;5.80;;
67986;SDS011;54767;53.800;15.956;2022-09-29T13:29:12;7.90;;;5.40;;
67986;SDS011;54767;53.800;15.956;2022-09-29T13:31:43;7.40;;;5.90;;
67986;SDS011;54767;53.800;15.956;2022-09-29T13:34:32;7.80;;;5.20;;
67986;SDS011;54767;53.800;15.956;2022-09-29T13:39:43;7.50;;;5.60;;
67986;SDS011;54767;53.800;15.956;2022-09-29T13:42:37;7.20;;;5.40;;
67986;SDS011;54767;53.800;15.956;2022-09-29T13:47:46;8.90;;;5.40;;
67986;SDS011;54767;53.800;15.956;2022-09-29T13:53:34;8.20;;;5.20;;
67986;SDS011;54767;53.800;15.956;2022-09-29T13:56:10;7.20;;;5.00;;
67986;SDS011;54767;53.800;15.956;2022-09-29T14:01:35;7.40;;;4.80;;
67986;SDS011;54767;53.800;15.956;2022-09-29T14:04:50;7.20;;;5.20;;
67986;SDS011;54767;53.800;15.956;2022-09-29T14:07:11;7.60;;;5.10;;
67986;SDS011;54767;53.800;15.956;2022-09-29T14:09:41;7.10;;;4.80;;
67986;SDS011;54767;53.800;15.956;2022-09-29T14:12:20;5.60;;;4.70;;
67986;SDS011;54767;53.800;15.956;2022-09-29T14:19:03;6.60;;;5.10;;
67986;SDS011;54767;53.800;15.956;2022-09-29T14:27:31;5.90;;;4.70;;
67986;SDS011;54767;53.800;15.956;2022-09-29T14:35:15;5.60;;;4.70;;
67986;SDS011;54767;53.800;15.956;2022-09-29T14:37:49;6.90;;;5.50;;
67986;SDS011;54767;53.800;15.956;2022-09-29T14:40:33;9.70;;;6.30;;
67986;SDS011;54767;53.800;15.956;2022-09-29T14:48:51;7.80;;;5.50;;
67986;SDS011;54767;53.800;15.956;2022-09-29T14:52:14;6.40;;;4.60;;
67986;SDS011;54767;53.800;15.956;2022-09-29T14:55:27;6.90;;;4.30;;
67986;SDS011;54767;53.800;15.956;2022-09-29T15:00:24;9.20;;;5.40;;
67986;SDS011;54767;53.800;15.956;2022-09-29T15:03:00;9.30;;;6.20;;
67986;SDS011;54767;53.800;15.956;2022-09-29T15:05:48;9.90;;;5.90;;
67986;SDS011;54767;53.800;15.956;2022-09-29T15:08:39;9.40;;;6.60;;
67986;SDS011;54767;53.800;15.956;2022-09-29T15:13:55;10.20;;;6.30;;
67986;SDS011;54767;53.800;15.956;2022-09-29T15:27:43;8.40;;;6.00;;
67986;SDS011;54767;53.800;15.956;2022-09-29T15:30:13;8.80;;;6.80;;
67986;SDS011;54767;53.800;15.956;2022-09-29T15:32:45;8.40;;;6.30;;
67986;SDS011;54767;53.800;15.956;2022-09-29T15:35:16;9.30;;;6.60;;
67986;SDS011;54767;53.800;15.956;2022-09-29T15:40:17;10.30;;;7.00;;
67986;SDS011;54767;53.800;15.956;2022-09-29T15:42:50;9.10;;;6.00;;
67986;SDS011;54767;53.800;15.956;2022-09-29T15:45:20;8.20;;;6.00;;
67986;SDS011;54767;53.800;15.956;2022-09-29T15:47:57;9.20;;;6.20;;
67986;SDS011;54767;53.800;15.956;2022-09-29T15:50:30;9.70;;;5.80;;
67986;SDS011;54767;53.800;15.956;2022-09-29T15:53:01;10.10;;;5.80;;
67986;SDS011;54767;53.800;15.956;2022-09-29T15:55:29;10.10;;;6.70;;
67986;SDS011;54767;53.800;15.956;2022-09-29T15:57:57;12.30;;;6.70;;
67986;SDS011;54767;53.800;15.956;2022-09-29T16:03:11;12.90;;;8.10;;
67986;SDS011;54767;53.800;15.956;2022-09-29T16:05:44;13.20;;;7.80;;
67986;SDS011;54767;53.800;15.956;2022-09-29T16:08:22;12.70;;;7.50;;
67986;SDS011;54767;53.800;15.956;2022-09-29T16:10:59;12.80;;;6.80;;
67986;SDS011;54767;53.800;15.956;2022-09-29T16:13:28;12.80;;;7.10;;
67986;SDS011;54767;53.800;15.956;2022-09-29T16:16:03;11.30;;;6.90;;
67986;SDS011;54767;53.800;15.956;2022-09-29T16:18:36;9.40;;;6.50;;
67986;SDS011;54767;53.800;15.956;2022-09-29T16:21:18;10.00;;;6.30;;
67986;SDS011;54767;53.800;15.956;2022-09-29T16:24:32;7.60;;;5.90;;
67986;SDS011;54767;53.800;15.956;2022-09-29T16:26:48;7.30;;;5.70;;
67986;SDS011;54767;53.800;15.956;2022-09-29T16:29:24;7.50;;;5.40;;
67986;SDS011;54767;53.800;15.956;2022-09-29T16:31:52;5.90;;;4.40;;
67986;SDS011;54767;53.800;15.956;2022-09-29T16:39:15;7.70;;;4.50;;
67986;SDS011;54767;53.800;15.956;2022-09-29T16:41:49;6.20;;;4.70;;
67986;SDS011;54767;53.800;15.956;2022-09-29T16:51:52;7.50;;;4.90;;
67986;SDS011;54767;53.800;15.956;2022-09-29T16:54:23;6.50;;;5.00;;
67986;SDS011;54767;53.800;15.956;2022-09-29T16:57:08;6.20;;;4.60;;
67986;SDS011;54767;53.800;15.956;2022-09-29T16:59:43;7.10;;;4.40;;
67986;SDS011;54767;53.800;15.956;2022-09-29T17:02:12;13.30;;;6.30;;
67986;SDS011;54767;53.800;15.956;2022-09-29T17:04:39;22.30;;;9.60;;
67986;SDS011;54767;53.800;15.956;2022-09-29T17:07:08;20.70;;;9.00;;
67986;SDS011;54767;53.800;15.956;2022-09-29T17:09:52;13.40;;;6.50;;
67986;SDS011;54767;53.800;15.956;2022-09-29T17:12:21;14.80;;;5.30;;
67986;SDS011;54767;53.800;15.956;2022-09-29T17:14:48;7.60;;;4.50;;
67986;SDS011;54767;53.800;15.956;2022-09-29T17:17:17;7.70;;;4.80;;
67986;SDS011;54767;53.800;15.956;2022-09-29T17:19:48;6.30;;;4.60;;
67986;SDS011;54767;53.800;15.956;2022-09-29T17:24:52;6.30;;;4.60;;
67986;SDS011;54767;53.800;15.956;2022-09-29T17:27:19;6.70;;;4.80;;
67986;SDS011;54767;53.800;15.956;2022-09-29T17:30:05;8.10;;;4.90;;
67986;SDS011;54767;53.800;15.956;2022-09-29T17:32:32;9.10;;;5.30;;
67986;SDS011;54767;53.800;15.956;2022-09-29T17:35:01;14.10;;;7.40;;
67986;SDS011;54767;53.800;15.956;2022-09-29T17:37:28;17.00;;;8.10;;
67986;SDS011;54767;53.800;15.956;2022-09-29T17:39:55;16.90;;;9.00;;
67986;SDS011;54767;53.800;15.956;2022-09-29T17:42:22;17.90;;;8.70;;
67986;SDS011;54767;53.800;15.956;2022-09-29T17:44:51;15.90;;;8.20;;
67986;SDS011;54767;53.800;15.956;2022-09-29T17:47:18;14.30;;;7.40;;
67986;SDS011;54767;53.800;15.956;2022-09-29T17:50:13;13.30;;;7.00;;
67986;SDS011;54767;53.800;15.956;2022-09-29T17:52:45;12.60;;;7.00;;
67986;SDS011;54767;53.800;15.956;2022-09-29T17:55:13;12.70;;;6.80;;
67986;SDS011;54767;53.800;15.956;2022-09-29T17:57:49;11.20;;;6.80;;
67986;SDS011;54767;53.800;15.956;2022-09-29T18:03:29;13.10;;;8.10;;
67986;SDS011;54767;53.800;15.956;2022-09-29T18:05:57;17.50;;;10.70;;
67986;SDS011;54767;53.800;15.956;2022-09-29T18:08:31;18.80;;;11.20;;
67986;SDS011;54767;53.800;15.956;2022-09-29T18:17:04;23.10;;;15.20;;
67986;SDS011;54767;53.800;15.956;2022-09-29T18:19:31;25.10;;;16.20;;
67986;SDS011;54767;53.800;15.956;2022-09-29T18:22:07;25.60;;;15.60;;
67986;SDS011;54767;53.800;15.956;2022-09-29T18:24:37;24.20;;;15.00;;
67986;SDS011;54767;53.800;15.956;2022-09-29T18:27:05;23.80;;;14.40;;
67986;SDS011;54767;53.800;15.956;2022-09-29T18:29:37;19.30;;;12.00;;
67986;SDS011;54767;53.800;15.956;2022-09-29T18:32:04;18.70;;;11.80;;
67986;SDS011;54767;53.800;15.956;2022-09-29T18:34:44;17.80;;;11.00;;
67986;SDS011;54767;53.800;15.956;2022-09-29T18:37:17;15.80;;;10.60;;
67986;SDS011;54767;53.800;15.956;2022-09-29T18:44:13;19.60;;;11.90;;
67986;SDS011;54767;53.800;15.956;2022-09-29T18:50:26;33.70;;;20.40;;
67986;SDS011;54767;53.800;15.956;2022-09-29T18:53:18;51.90;;;28.90;;
67986;SDS011;54767;53.800;15.956;2022-09-29T18:55:56;74.70;;;37.90;;
67986;SDS011;54767;53.800;15.956;2022-09-29T18:58:33;132.60;;;55.10;;
67986;SDS011;54767;53.800;15.956;2022-09-29T19:01:01;164.10;;;65.50;;
67986;SDS011;54767;53.800;15.956;2022-09-29T19:04:08;187.80;;;70.20;;
67986;SDS011;54767;53.800;15.956;2022-09-29T19:06:42;168.50;;;63.60;;
67986;SDS011;54767;53.800;15.956;2022-09-29T19:09:21;108.40;;;45.30;;
67986;SDS011;54767;53.800;15.956;2022-09-29T19:14:50;43.10;;;22.70;;
67986;SDS011;54767;53.800;15.956;2022-09-29T19:17:29;41.90;;;23.00;;